createdAt,value
2018-05-10T00:00:13.997Z,11.9
2018-05-10T00:01:04.363Z,11.9
2018-05-10T00:01:54.420Z,12
2018-05-10T00:02:44.498Z,11.9
2018-05-10T00:03:34.539Z,11.9
2018-05-10T00:04:24.699Z,12
2018-05-10T00:05:14.671Z,11.9
2018-05-10T00:06:04.454Z,11.9
2018-05-10T00:06:54.812Z,11.9
2018-05-10T00:07:44.682Z,11.9
2018-05-10T00:08:34.649Z,11.9
2018-05-10T00:09:39.895Z,11.9
2018-05-10T00:10:15.169Z,11.9
2018-05-10T00:11:04.842Z,11.9
2018-05-10T00:11:55.184Z,11.9
2018-05-10T00:12:44.693Z,11.9
2018-05-10T00:13:35.035Z,11.9
2018-05-10T00:14:25.096Z,11.9
2018-05-10T00:15:15.436Z,11.9
2018-05-10T00:16:05.242Z,11.9
2018-05-10T00:16:55.559Z,11.9
2018-05-10T00:17:45.346Z,11.9
2018-05-10T00:18:35.711Z,11.9
2018-05-10T00:19:25.487Z,11.9
2018-05-10T00:20:15.840Z,11.9
2018-05-10T00:21:05.900Z,11.8
2018-05-10T00:21:55.964Z,11.8
2018-05-10T00:22:46.016Z,11.8
2018-05-10T00:23:36.077Z,11.8
2018-05-10T00:24:26.696Z,11.8
2018-05-10T00:25:16.206Z,11.8
2018-05-10T00:26:06.277Z,11.8
2018-05-10T00:26:56.336Z,11.8
2018-05-10T00:27:46.113Z,11.8
2018-05-10T00:28:36.468Z,11.8
2018-05-10T00:29:26.285Z,11.8
2018-05-10T00:30:16.216Z,11.8
2018-05-10T00:31:06.585Z,11.7
2018-05-10T00:31:56.716Z,11.7
2018-05-10T00:32:46.499Z,11.7
2018-05-10T00:33:36.549Z,11.6
2018-05-10T00:34:26.891Z,11.6
2018-05-10T00:35:16.694Z,11.6
2018-05-10T00:36:07.042Z,11.6
2018-05-10T00:36:56.829Z,11.6
2018-05-10T00:37:47.154Z,11.6
2018-05-10T00:38:36.980Z,11.5
2018-05-10T00:39:27.340Z,11.5
2018-05-10T00:40:17.089Z,11.5
2018-05-10T00:41:07.458Z,11.4
2018-05-10T00:41:57.506Z,11.4
2018-05-10T00:43:51.010Z,11.4
2018-05-10T00:44:01.320Z,11.4
2018-05-10T00:44:52.166Z,11.4
2018-05-10T00:45:42.020Z,11.4
2018-05-10T00:46:31.804Z,11.3
2018-05-10T00:47:21.591Z,11.3
2018-05-10T00:48:12.225Z,11.3
2018-05-10T00:49:02.292Z,11.3
2018-05-10T00:49:51.761Z,11.3
2018-05-10T00:50:42.123Z,11.2
2018-05-10T00:51:32.459Z,11.2
2018-05-10T00:52:22.508Z,11.2
2018-05-10T00:53:12.799Z,11.1
2018-05-10T00:54:02.381Z,11.1
2018-05-10T00:54:52.439Z,11.1
2018-05-10T00:55:42.793Z,11.1
2018-05-10T00:56:32.869Z,11.1
2018-05-10T00:57:22.636Z,11
2018-05-10T00:58:12.710Z,11.1
2018-05-10T00:59:03.019Z,11
2018-05-10T00:59:52.834Z,11
2018-05-10T01:00:42.926Z,11
2018-05-10T01:01:33.483Z,11
2018-05-10T01:02:23.006Z,10.9
2018-05-10T01:03:12.609Z,10.9
2018-05-10T01:04:03.432Z,10.9
2018-05-10T01:04:53.203Z,10.9
2018-05-10T01:05:42.997Z,10.9
2018-05-10T01:06:32.764Z,10.9
2018-05-10T01:07:23.422Z,10.9
2018-05-10T01:08:13.479Z,10.9
2018-05-10T01:09:03.519Z,10.8
2018-05-10T01:09:54.049Z,10.8
2018-05-10T01:10:43.374Z,10.8
2018-05-10T01:11:33.516Z,10.8
2018-05-10T01:12:23.803Z,10.8
2018-05-10T01:13:13.745Z,10.8
2018-05-10T01:14:03.632Z,10.8
2018-05-10T01:14:54.060Z,10.8
2018-05-10T01:15:43.636Z,10.8
2018-05-10T01:16:34.121Z,10.8
2018-05-10T01:17:24.173Z,10.8
2018-05-10T01:18:14.231Z,10.8
2018-05-10T01:19:04.286Z,10.7
2018-05-10T01:19:54.452Z,10.8
2018-05-10T01:20:44.388Z,10.7
2018-05-10T01:21:34.547Z,10.7
2018-05-10T01:22:24.541Z,10.6
2018-05-10T01:23:14.336Z,10.6
2018-05-10T01:24:04.930Z,10.6
2018-05-10T01:24:55.018Z,10.6
2018-05-10T01:25:45.087Z,10.6
2018-05-10T01:26:34.888Z,10.6
2018-05-10T01:27:24.920Z,10.6
2018-05-10T01:28:14.972Z,10.6
2018-05-10T01:29:05.331Z,10.6
2018-05-10T01:29:54.812Z,10.6
2018-05-10T01:30:45.491Z,10.6
2018-05-10T01:31:35.500Z,10.6
2018-05-10T01:32:25.315Z,10.6
2018-05-10T20:10:29.421Z,13.4
2018-05-10T20:11:20.049Z,13.4
2018-05-10T20:12:10.101Z,13.4
2018-05-10T20:13:00.149Z,13.4
2018-05-10T20:13:50.776Z,13.4
2018-05-10T20:14:40.281Z,13.4
2018-05-10T20:15:30.357Z,13.4
2018-05-10T20:16:20.420Z,13.4
2018-05-10T20:17:10.220Z,13.4
2018-05-10T20:18:00.571Z,13.4
2018-05-10T20:18:50.041Z,13.4
2018-05-10T20:19:40.676Z,13.4
2018-05-10T20:20:29.969Z,13.4
2018-05-10T20:21:20.811Z,13.4
2018-05-10T20:22:10.853Z,13.4
2018-05-10T20:23:00.361Z,13.4
2018-05-10T20:23:50.982Z,13.4
2018-05-10T20:24:40.361Z,13.4
2018-05-10T20:25:30.573Z,13.4
2018-05-10T20:26:20.616Z,13.4
2018-05-10T20:27:10.472Z,13.4
2018-05-10T20:28:00.856Z,13.4
2018-05-10T20:28:50.805Z,13.4
2018-05-10T20:29:40.697Z,13.3
2018-05-10T20:30:31.036Z,13.3
2018-05-10T20:31:21.089Z,13.3
2018-05-10T20:32:11.489Z,13.3
2018-05-10T20:33:01.673Z,13.3
2018-05-10T20:33:51.193Z,13.3
2018-05-10T20:34:41.334Z,13.3
2018-05-10T20:35:31.578Z,13.3
2018-05-10T20:36:21.939Z,13.3
2018-05-10T20:37:12.012Z,13.3
2018-05-10T20:38:01.210Z,13.3
2018-05-10T20:38:52.143Z,13.2
2018-05-10T20:39:42.242Z,13.2
2018-05-10T20:40:31.703Z,13.2
2018-05-10T20:41:22.066Z,13.1
2018-05-10T20:42:12.220Z,13.1
2018-05-10T20:43:02.610Z,13.1
2018-05-10T20:43:52.242Z,13.1
2018-05-10T20:44:42.373Z,13.1
2018-05-10T20:45:32.347Z,13.1
2018-05-10T20:46:22.412Z,13.1
2018-05-10T20:47:12.477Z,13.1
2018-05-10T20:48:02.549Z,13.1
2018-05-10T20:48:52.919Z,13.1
2018-05-10T20:49:42.687Z,13
2018-05-10T20:50:33.216Z,13
2018-05-10T20:51:22.525Z,13.1
2018-05-10T20:52:13.153Z,13
2018-05-10T20:53:02.901Z,13
2018-05-10T20:53:52.783Z,13
2018-05-10T20:54:43.335Z,13
2018-05-10T20:55:33.436Z,12.9
2018-05-10T20:56:23.450Z,12.9
2018-05-10T20:57:12.960Z,12.9
2018-05-10T20:58:03.031Z,12.9
2018-05-10T20:58:53.188Z,12.9
2018-05-10T20:59:43.448Z,12.9
2018-05-10T21:00:33.484Z,12.9
2018-05-10T21:01:23.566Z,12.9
2018-05-10T21:02:13.090Z,12.8
2018-05-10T21:03:03.686Z,12.9
2018-05-10T21:03:53.351Z,12.8
2018-05-10T21:04:43.606Z,12.8
2018-05-10T21:05:33.967Z,12.8
2018-05-10T21:06:23.948Z,12.8
2018-05-10T21:07:13.707Z,12.8
2018-05-10T21:08:04.361Z,12.8
2018-05-10T21:08:54.425Z,12.8
2018-05-10T21:09:44.179Z,12.8
2018-05-10T21:10:34.253Z,12.8
2018-05-10T21:11:24.029Z,12.8
2018-05-10T21:12:14.367Z,12.7
2018-05-10T21:13:04.744Z,12.7
2018-05-10T21:13:54.791Z,12.7
2018-05-10T21:14:44.385Z,12.7
2018-05-10T21:15:34.638Z,12.7
2018-05-10T21:16:24.821Z,12.7
2018-05-10T21:17:15.043Z,12.7
2018-05-10T21:18:05.107Z,12.7
2018-05-10T21:18:55.184Z,12.7
2018-05-10T21:19:44.965Z,12.7
2018-05-10T21:20:35.300Z,12.7
2018-05-10T21:21:25.184Z,12.7
2018-05-10T21:22:15.129Z,12.7
2018-05-10T21:23:05.674Z,12.7
2018-05-10T21:23:55.276Z,12.6
2018-05-10T21:24:45.591Z,12.6
2018-05-10T21:25:35.396Z,12.6
2018-05-10T21:26:25.747Z,12.6
2018-05-10T21:27:15.797Z,12.6
2018-05-10T21:28:05.849Z,12.6
2018-05-10T21:28:55.649Z,12.6
2018-05-10T21:29:46.007Z,12.6
2018-05-10T21:30:35.489Z,12.6
2018-05-10T21:31:25.834Z,12.6
2018-05-10T21:32:16.171Z,12.6
2018-05-10T21:33:06.254Z,12.6
2018-05-10T21:33:56.448Z,12.6
2018-05-10T21:34:46.368Z,12.6
2018-05-10T21:35:36.424Z,12.6
2018-05-10T21:36:26.503Z,12.6
2018-05-10T21:37:16.563Z,12.6
2018-05-10T21:38:06.611Z,12.6
2018-05-10T21:38:56.689Z,12.6
2018-05-10T21:39:46.723Z,12.7
2018-05-10T21:40:36.523Z,12.7
2018-05-10T21:41:26.312Z,12.7
2018-05-10T21:42:16.946Z,12.7
2018-05-10T21:43:06.736Z,12.7
2018-05-10T21:43:56.758Z,12.7
2018-05-10T21:44:47.410Z,12.7
2018-05-10T21:45:37.188Z,12.7
2018-05-10T21:46:27.254Z,12.7
2018-05-10T21:47:17.326Z,12.8
2018-05-10T21:48:07.368Z,12.7
2018-05-10T21:48:57.163Z,12.8
2018-05-10T21:49:47.525Z,12.8
2018-05-10T21:50:36.992Z,12.8
2018-05-10T21:51:27.345Z,12.8
2018-05-10T21:52:17.704Z,12.8
2018-05-10T21:53:07.764Z,12.8
2018-05-10T21:53:56.992Z,12.8
2018-05-10T21:54:47.931Z,12.8
2018-05-10T21:55:37.657Z,12.8
2018-05-10T21:56:28.008Z,12.8
2018-05-10T21:57:17.532Z,12.8
2018-05-10T21:58:08.132Z,12.8
2018-05-10T21:58:57.945Z,12.8
2018-05-10T21:59:48.276Z,12.8
2018-05-10T22:00:38.333Z,12.8
2018-05-10T22:01:28.396Z,12.8
2018-05-10T22:02:18.444Z,12.9
2018-05-10T22:03:08.502Z,12.8
2018-05-10T22:03:58.609Z,12.8
2018-05-10T22:04:48.666Z,12.8
2018-05-10T22:05:38.705Z,12.9
2018-05-10T22:06:28.769Z,12.9
2018-05-10T22:07:18.565Z,12.9
2018-05-10T22:08:08.605Z,12.9
2018-05-10T22:08:59.012Z,12.9
2018-05-10T22:09:49.090Z,12.9
2018-05-10T22:10:39.084Z,12.9
2018-05-10T22:11:29.152Z,12.9
2018-05-10T22:12:19.303Z,12.9
2018-05-10T22:13:09.285Z,12.9
2018-05-10T22:13:59.060Z,12.9
2018-05-10T22:14:49.141Z,12.9
2018-05-10T22:15:39.500Z,12.9
2018-05-10T22:16:29.279Z,12.9
2018-05-10T22:17:19.617Z,12.9
2018-05-10T22:18:09.388Z,12.9
2018-05-10T22:18:59.755Z,12.9
2018-05-10T22:19:49.512Z,12.9
2018-05-10T22:20:39.940Z,12.9
2018-05-10T22:21:29.917Z,12.9
2018-05-10T22:22:19.977Z,13
2018-05-10T22:23:09.754Z,13
2018-05-10T22:24:00.103Z,13
2018-05-10T22:24:50.159Z,13.1
2018-05-10T22:25:40.214Z,13.1
2018-05-10T22:26:30.295Z,13
2018-05-10T22:27:19.795Z,13.1
2018-05-10T22:28:10.402Z,13.1
2018-05-10T22:29:00.200Z,13.1
2018-05-10T22:29:50.537Z,13.1
2018-05-10T22:30:40.609Z,13.1
2018-05-10T22:31:30.660Z,13.1
2018-05-10T22:32:20.743Z,13.1
2018-05-10T22:33:10.798Z,13.1
2018-05-10T22:34:00.578Z,13.1
2018-05-10T22:34:50.635Z,13.1
2018-05-10T22:35:40.979Z,13.1
2018-05-10T22:36:30.473Z,13.1
2018-05-10T22:37:21.117Z,13.1
2018-05-10T22:38:11.192Z,13.1
2018-05-10T22:39:00.975Z,13.1
2018-05-10T22:39:51.317Z,13.1
2018-05-10T22:40:41.097Z,13.1
2018-05-10T22:41:31.436Z,13.1
2018-05-10T22:42:21.486Z,13.1
2018-05-10T22:43:11.285Z,13.1
2018-05-10T22:44:01.348Z,13.1
2018-05-10T22:44:51.687Z,13
2018-05-10T22:45:41.745Z,13.1
2018-05-10T22:46:31.817Z,13
2018-05-10T22:47:21.304Z,13
2018-05-10T22:48:11.957Z,13
2018-05-10T22:49:02.031Z,13
2018-05-10T22:49:52.064Z,12.9
2018-05-10T22:50:42.152Z,13
2018-05-10T22:51:32.182Z,12.9
2018-05-10T22:52:21.996Z,13
2018-05-10T22:53:12.319Z,12.9
2018-05-10T22:54:02.106Z,12.9
2018-05-10T22:54:52.440Z,12.9
2018-05-10T22:55:42.546Z,12.9
2018-05-10T22:56:32.300Z,12.9
2018-05-10T22:57:22.665Z,12.9
2018-05-10T22:58:12.714Z,12.9
2018-05-10T22:59:02.767Z,12.9
2018-05-10T22:59:53.248Z,12.9
2018-05-10T23:00:42.897Z,12.9
2018-05-10T23:01:32.503Z,12.9
2018-05-10T23:02:23.027Z,12.9
2018-05-10T23:03:12.786Z,12.9
2018-05-10T23:04:03.143Z,12.9
2018-05-10T23:04:53.227Z,12.9
2018-05-10T23:05:43.258Z,12.9
2018-05-10T23:06:33.333Z,12.9
2018-05-10T23:07:23.394Z,12.9
2018-05-10T23:08:13.453Z,12.9
2018-05-10T23:09:03.521Z,12.9
2018-05-10T23:09:53.589Z,12.9
2018-05-10T23:10:43.090Z,12.9
2018-05-10T23:11:33.445Z,12.9
2018-05-10T23:12:23.777Z,12.9
2018-05-10T23:13:13.563Z,12.9
2018-05-10T23:14:03.902Z,12.9
2018-05-10T23:14:53.400Z,12.9
2018-05-10T23:15:43.740Z,12.9
2018-05-10T23:16:34.083Z,12.9
2018-05-10T23:17:24.149Z,12.9
2018-05-10T23:18:14.202Z,12.9
2018-05-10T23:19:04.013Z,12.9
2018-05-10T23:19:54.333Z,12.9
2018-05-10T23:20:44.389Z,12.9
2018-05-10T23:21:34.184Z,12.9
2018-05-10T23:22:24.256Z,12.9
2018-05-10T23:23:14.600Z,12.9
2018-05-10T23:24:04.676Z,12.9
2018-05-10T23:24:54.147Z,12.9
2018-05-10T23:25:44.883Z,12.9
2018-05-10T23:26:34.843Z,12.9
2018-05-10T23:27:24.916Z,12.9
2018-05-10T23:28:15.000Z,12.9
2018-05-10T23:29:04.495Z,12.9
2018-05-10T23:29:54.523Z,12.9
2018-05-10T23:30:45.158Z,12.9
2018-05-10T23:31:34.969Z,12.9
2018-05-10T23:32:25.289Z,12.9
2018-05-10T23:33:15.359Z,12.9
2018-05-10T23:34:05.411Z,12.9
2018-05-10T23:34:54.912Z,12.9
2018-05-10T23:35:45.260Z,12.9
2018-05-10T23:36:35.595Z,12.9
2018-05-10T23:37:25.109Z,12.9
2018-05-10T23:38:15.452Z,12.9
2018-05-10T23:39:05.795Z,12.9
2018-05-10T23:39:55.879Z,12.9
2018-05-10T23:40:45.913Z,12.9
2018-05-10T23:41:36.011Z,12.9
2018-05-10T23:42:26.073Z,12.9
2018-05-10T23:43:15.838Z,12.9
2018-05-10T23:44:06.192Z,12.9
2018-05-10T23:44:56.246Z,12.9
2018-05-10T23:45:46.302Z,12.9
2018-05-10T23:46:36.374Z,12.9
2018-05-10T23:47:26.148Z,12.9
2018-05-10T23:48:16.511Z,12.9
2018-05-10T23:49:06.570Z,12.9
2018-05-10T23:49:56.613Z,12.9
2018-05-10T23:50:46.402Z,12.9
2018-05-10T23:51:36.738Z,12.9
2018-05-10T23:52:26.518Z,12.9
2018-05-10T23:53:16.855Z,12.9
2018-05-10T23:54:06.667Z,12.9
2018-05-10T23:54:57.006Z,12.9
2018-05-10T23:55:47.061Z,12.9
2018-05-10T23:56:37.123Z,12.9
2018-05-10T23:57:27.189Z,12.8
2018-05-10T23:58:16.690Z,12.8
2018-05-10T23:59:07.305Z,12.8
2018-05-10T23:59:57.093Z,12.8
